SLAS/ASC METAR and TAF weather

Enter ICAO airport designator
Station Type Date Time Source
SLAS METAR 2020/01/16 21:00 UTC NOAA

SLAS 162100Z 34004KT 9999 FEW020 36/24 Q1011


Station Type Date Time Source
SLAS Decoded METAR 2020/01/16 21:00 UTC NOAA

Ascencion De Guarayos, Bolivia (SLAS) 15-43S 063-06W
Jan 16, 2020 - 04:00 PM EST / 2020.01.16 2100 UTC
Wind: from the NNW (340 degrees) at 5 MPH (4 KT):0
Visibility: greater than 7 mile(s):0
Sky conditions: mostly clear
Temperature: 96 F (36 C)
Heat index: 107.6 F (42.0 C):1
Dew Point: 75 F (24 C)
Relative Humidity: 50%
Pressure (altimeter): 29.85 in. Hg (1011 hPa)
ob: SLAS 162100Z 34004KT 9999 FEW020 36/24 Q1011
cycle: 21

Station Type Date Time Source
SLAS TAF UTC NOAA

Error!

Example: see airport list